createdAt,value
2022-12-23T00:01:52.688Z,8.27
2022-12-23T00:04:45.065Z,8.40
2022-12-23T00:07:12.144Z,8.20
2022-12-23T00:09:38.972Z,8.63
2022-12-23T00:12:06.325Z,7.93
2022-12-23T00:14:33.055Z,8.40
2022-12-23T00:17:01.271Z,8.48
2022-12-23T00:19:29.072Z,8.20
2022-12-23T00:21:55.963Z,8.40
2022-12-23T00:24:22.944Z,7.75
2022-12-23T00:26:49.818Z,7.85
2022-12-23T00:29:16.875Z,7.45
2022-12-23T00:31:43.630Z,7.93
2022-12-23T00:34:12.458Z,7.68
2022-12-23T00:36:39.548Z,8.45
2022-12-23T00:39:11.546Z,8.23
2022-12-23T00:41:38.809Z,8.43
2022-12-23T00:44:05.664Z,7.78
2022-12-23T00:46:32.837Z,8.40
2022-12-23T00:48:59.773Z,8.82
2022-12-23T00:51:27.886Z,8.95
2022-12-23T00:53:55.041Z,7.95
2022-12-23T00:56:21.795Z,8.98
2022-12-23T00:58:48.954Z,7.97
2022-12-23T01:01:15.927Z,8.40
2022-12-23T01:03:42.739Z,7.68
2022-12-23T01:06:09.885Z,8.88
2022-12-23T01:08:38.607Z,9.07
2022-12-23T01:11:08.088Z,8.18
2022-12-23T01:13:35.798Z,8.68
2022-12-23T01:16:04.579Z,8.80
2022-12-23T01:18:31.711Z,8.38
2022-12-23T01:21:02.320Z,8.52
2022-12-23T01:23:29.333Z,8.10
2022-12-23T01:25:59.231Z,9.02
2022-12-23T01:28:28.028Z,9.10
2022-12-23T01:30:54.853Z,9.63
2022-12-23T01:33:21.812Z,8.63
2022-12-23T01:35:48.937Z,8.63
2022-12-23T01:38:16.032Z,8.98
2022-12-23T01:40:45.311Z,9.70
2022-12-23T01:43:17.462Z,9.43
2022-12-23T01:45:44.437Z,9.10
2022-12-23T01:48:17.443Z,9.63
2022-12-23T01:50:51.275Z,9.32
2022-12-23T01:53:25.323Z,9.30
2022-12-23T01:55:59.034Z,9.27
2022-12-23T01:58:33.094Z,9.77
2022-12-23T02:01:01.244Z,9.02
2022-12-23T02:03:57.712Z,9.27
2022-12-23T02:06:28.958Z,9.48
2022-12-23T02:08:55.857Z,9.48
2022-12-23T02:11:50.748Z,9.85
2022-12-23T02:14:38.762Z,9.95
2022-12-23T02:17:18.517Z,9.63
2022-12-23T02:20:29.160Z,10.40
2022-12-23T02:23:37.159Z,8.85
2022-12-23T02:26:33.964Z,9.60
2022-12-23T02:29:37.033Z,10.25
2022-12-23T02:32:15.679Z,9.35
2022-12-23T02:34:52.352Z,10.30
2022-12-23T02:37:25.325Z,9.60
2022-12-23T02:40:02.728Z,10.23
2022-12-23T02:42:36.635Z,9.30
2022-12-23T02:45:13.110Z,9.57
2022-12-23T02:47:46.727Z,8.80
2022-12-23T02:50:20.784Z,8.10
2022-12-23T02:52:50.726Z,9.93
2022-12-23T02:55:24.052Z,9.73
2022-12-23T02:58:01.925Z,9.93
2022-12-23T03:00:30.631Z,9.38
2022-12-23T03:02:59.304Z,9.88
2022-12-23T03:05:30.146Z,9.98
2022-12-23T03:08:02.697Z,10.15
2022-12-23T03:13:21.101Z,10.50
2022-12-23T03:16:05.513Z,10.00
2022-12-23T03:18:51.517Z,9.32
2022-12-23T03:21:30.555Z,9.77
2022-12-23T03:24:11.517Z,10.77
2022-12-23T03:26:48.911Z,9.00
2022-12-23T03:29:26.201Z,10.65
2022-12-23T03:31:57.637Z,8.77
2022-12-23T03:34:34.137Z,10.68
2022-12-23T03:37:05.943Z,9.45
2022-12-23T03:39:40.450Z,11.25
2022-12-23T03:42:16.096Z,10.35
2022-12-23T03:45:19.172Z,9.63
2022-12-23T03:47:43.111Z,10.52
2022-12-23T03:50:16.719Z,9.65
2022-12-23T03:52:51.862Z,10.13
2022-12-23T03:55:26.600Z,10.10
2022-12-23T03:58:07.469Z,10.73
2022-12-23T04:00:44.513Z,10.95
2022-12-23T04:03:21.836Z,10.35
2022-12-23T04:06:01.670Z,10.52
2022-12-23T04:08:34.444Z,11.32
2022-12-23T04:11:03.104Z,10.57
2022-12-23T04:13:30.858Z,11.25
2022-12-23T04:15:58.815Z,10.85
2022-12-23T04:18:26.084Z,10.93
2022-12-23T04:20:54.525Z,10.45
2022-12-23T04:23:21.499Z,11.10
2022-12-23T04:25:48.528Z,11.13
2022-12-23T04:28:16.117Z,11.20
2022-12-23T04:30:42.936Z,10.90
2022-12-23T04:33:11.641Z,11.27
2022-12-23T04:35:38.938Z,9.32
2022-12-23T04:38:07.199Z,10.43
2022-12-23T04:40:34.522Z,10.85
2022-12-23T04:43:01.412Z,10.02
2022-12-23T04:45:28.408Z,10.88
2022-12-23T04:47:55.366Z,10.65
2022-12-23T04:50:22.433Z,10.35
2022-12-23T04:52:49.413Z,11.88
2022-12-23T04:55:17.639Z,11.15
2022-12-23T04:57:44.865Z,10.38
2022-12-23T05:00:13.124Z,10.75
2022-12-23T05:02:40.264Z,10.68
2022-12-23T05:05:08.247Z,10.75
2022-12-23T05:07:35.080Z,12.02
2022-12-23T05:10:02.181Z,10.32
2022-12-23T05:12:31.654Z,10.93
2022-12-23T05:14:58.475Z,11.95
2022-12-23T05:17:25.470Z,9.25
2022-12-23T05:19:52.825Z,10.40
2022-12-23T05:22:19.862Z,11.60
2022-12-23T05:24:50.824Z,11.15
2022-12-23T05:27:17.879Z,10.02
2022-12-23T05:29:46.024Z,10.05
2022-12-23T05:32:13.000Z,10.32
2022-12-23T05:34:39.705Z,9.77
2022-12-23T05:37:06.790Z,10.35
2022-12-23T05:39:33.636Z,11.35
2022-12-23T05:42:00.698Z,11.48
2022-12-23T05:44:27.517Z,9.02
2022-12-23T05:46:55.714Z,10.73
2022-12-23T05:49:22.684Z,12.13
2022-12-23T05:51:49.423Z,11.55
2022-12-23T05:54:16.503Z,11.70
2022-12-23T05:56:43.261Z,12.27
2022-12-23T05:59:10.490Z,11.07
2022-12-23T06:01:37.611Z,11.63
2022-12-23T06:04:06.293Z,11.93
2022-12-23T06:06:33.268Z,11.13
2022-12-23T06:09:00.514Z,10.65
2022-12-23T06:11:27.499Z,11.15
2022-12-23T06:13:54.553Z,11.20
2022-12-23T06:16:21.718Z,10.45
2022-12-23T06:18:48.594Z,11.10
2022-12-23T06:21:17.036Z,10.45
2022-12-23T06:23:43.891Z,10.88
2022-12-23T06:26:10.803Z,9.90
2022-12-23T06:28:37.727Z,11.18
2022-12-23T06:31:04.944Z,11.00
2022-12-23T06:33:31.762Z,11.82
2022-12-23T06:35:58.938Z,10.50
2022-12-23T06:38:27.468Z,10.95
2022-12-23T06:40:54.299Z,10.70
2022-12-23T06:43:21.169Z,13.32
2022-12-23T06:45:49.264Z,11.73
2022-12-23T06:48:17.496Z,11.13
2022-12-23T06:50:44.374Z,9.95
2022-12-23T06:53:11.435Z,11.35
2022-12-23T06:55:39.767Z,9.85
2022-12-23T06:58:06.740Z,9.70
2022-12-23T07:00:33.845Z,10.85
2022-12-23T07:03:01.024Z,10.38
2022-12-23T07:05:34.897Z,8.13
2022-12-23T07:08:03.751Z,10.85
2022-12-23T07:10:30.949Z,8.82
2022-12-23T07:12:59.199Z,9.40
2022-12-23T07:15:26.018Z,9.95
2022-12-23T07:17:54.743Z,9.07
2022-12-23T07:20:21.465Z,9.93
2022-12-23T07:22:48.489Z,9.13
2022-12-23T07:25:15.941Z,9.55
2022-12-23T07:27:43.178Z,9.90
2022-12-23T07:30:12.073Z,8.77
2022-12-23T07:32:39.179Z,7.78
2022-12-23T07:35:06.968Z,8.48
2022-12-23T07:37:34.010Z,8.23
2022-12-23T07:40:06.631Z,9.43
2022-12-23T07:42:50.649Z,8.57
2022-12-23T07:45:18.879Z,8.35
2022-12-23T07:47:45.776Z,7.90
2022-12-23T07:50:13.295Z,8.10
2022-12-23T07:52:40.168Z,8.32
2022-12-23T07:55:07.954Z,9.38
2022-12-23T07:58:00.377Z,8.40
2022-12-23T08:00:28.652Z,7.80
2022-12-23T08:02:55.539Z,9.60
2022-12-23T08:05:22.462Z,9.23
2022-12-23T08:07:52.011Z,8.38
2022-12-23T08:10:18.975Z,8.00
2022-12-23T08:12:45.811Z,7.78
2022-12-23T08:15:12.696Z,7.82
2022-12-23T08:17:41.270Z,8.48
2022-12-23T08:20:09.747Z,8.02
2022-12-23T08:22:36.655Z,8.85
2022-12-23T08:25:04.052Z,9.00
2022-12-23T08:27:30.933Z,7.82
2022-12-23T08:29:57.737Z,8.25
2022-12-23T08:32:27.072Z,8.52
2022-12-23T08:34:57.266Z,7.38
2022-12-23T08:37:24.964Z,8.10
2022-12-23T08:39:51.755Z,8.00
2022-12-23T08:42:20.200Z,9.13
2022-12-23T08:44:46.989Z,7.80
2022-12-23T08:47:13.798Z,7.28
2022-12-23T08:49:40.752Z,8.35
2022-12-23T08:52:08.915Z,8.60
2022-12-23T08:54:35.712Z,7.63
2022-12-23T08:57:02.794Z,6.88
2022-12-23T08:59:29.719Z,6.90
2022-12-23T09:01:56.667Z,7.43
2022-12-23T09:04:23.479Z,6.55
2022-12-23T09:06:50.264Z,7.00
2022-12-23T09:09:18.387Z,8.82
2022-12-23T09:11:45.205Z,6.55
2022-12-23T09:14:12.918Z,6.80
2022-12-23T09:16:40.054Z,6.45
2022-12-23T09:19:07.210Z,6.57
2022-12-23T09:21:34.129Z,6.35
2022-12-23T09:24:00.857Z,6.70
2022-12-23T09:26:31.107Z,6.25
2022-12-23T09:28:58.445Z,6.93
2022-12-23T09:31:30.665Z,6.45
2022-12-23T09:34:03.030Z,6.88
2022-12-23T09:36:29.825Z,5.95
2022-12-23T09:38:58.431Z,5.63
2022-12-23T09:41:46.511Z,5.95
2022-12-23T09:44:38.444Z,5.20
2022-12-23T09:47:12.768Z,5.57
2022-12-23T09:49:48.831Z,5.28
2022-12-23T09:52:24.826Z,5.55
2022-12-23T09:54:55.253Z,5.43
2022-12-23T09:57:36.520Z,5.55
2022-12-23T10:00:13.020Z,5.80
2022-12-23T10:03:13.353Z,4.85
2022-12-23T10:05:51.995Z,5.05
2022-12-23T10:08:29.891Z,5.28
2022-12-23T10:11:01.717Z,4.47
2022-12-23T10:13:37.522Z,5.03
2022-12-23T10:16:12.298Z,5.35
2022-12-23T10:18:50.269Z,4.97
2022-12-23T10:21:26.852Z,6.15
2022-12-23T10:23:55.267Z,10.35
2022-12-23T10:26:28.868Z,7.30
2022-12-23T10:29:08.155Z,7.43
2022-12-23T10:31:48.964Z,9.15
2022-12-23T10:34:23.324Z,7.55
2022-12-23T10:37:00.750Z,8.63
2022-12-23T10:39:36.846Z,7.55
2022-12-23T10:42:18.632Z,6.22
2022-12-23T10:45:12.219Z,6.30
2022-12-23T10:48:14.416Z,5.72
2022-12-23T10:51:00.230Z,6.13
2022-12-23T10:53:37.399Z,6.20
2022-12-23T10:56:06.274Z,5.97
2022-12-23T10:58:38.309Z,5.60
2022-12-23T11:01:14.946Z,6.07
2022-12-23T11:03:56.443Z,8.15
2022-12-23T11:06:25.929Z,6.97
2022-12-23T11:08:56.804Z,8.45
2022-12-23T11:11:23.823Z,11.10
2022-12-23T11:13:50.682Z,12.27
2022-12-23T11:16:25.217Z,9.10
2022-12-23T11:18:56.610Z,8.50
2022-12-23T11:21:23.504Z,8.25
2022-12-23T11:24:15.799Z,6.03
2022-12-23T11:26:44.455Z,6.20
2022-12-23T11:29:21.613Z,6.10
2022-12-23T11:31:51.030Z,6.28
2022-12-23T11:34:21.447Z,5.55
2022-12-23T11:36:58.673Z,6.68
2022-12-23T11:39:32.700Z,6.45
2022-12-23T11:42:07.267Z,5.65
2022-12-23T11:44:40.050Z,5.93
2022-12-23T11:47:28.052Z,5.90
2022-12-23T11:49:57.552Z,5.68
2022-12-23T11:52:26.332Z,5.32
2022-12-23T11:54:56.921Z,5.25
2022-12-23T11:57:37.374Z,5.55
2022-12-23T12:00:17.714Z,4.85
2022-12-23T12:02:50.352Z,4.68
2022-12-23T12:05:22.237Z,5.00
2022-12-23T12:07:51.027Z,5.07
2022-12-23T12:10:25.018Z,4.80
2022-12-23T12:12:59.475Z,5.35
2022-12-23T12:15:42.098Z,5.15
2022-12-23T12:18:15.888Z,5.07
2022-12-23T12:20:46.633Z,5.10
2022-12-23T12:23:21.149Z,4.72
2022-12-23T12:25:55.480Z,4.68
2022-12-23T12:28:29.823Z,4.53
2022-12-23T12:31:05.127Z,4.90
2022-12-23T12:33:41.391Z,5.50
2022-12-23T12:36:18.674Z,5.65
2022-12-23T12:38:48.659Z,4.68
2022-12-23T12:41:22.760Z,4.53
2022-12-23T12:44:04.968Z,4.75
2022-12-23T12:46:40.660Z,4.95
2022-12-23T12:49:19.243Z,4.93
2022-12-23T12:51:54.203Z,4.38
2022-12-23T12:54:30.057Z,4.90
2022-12-23T12:56:59.082Z,4.28
2022-12-23T12:59:28.796Z,4.80
2022-12-23T13:02:34.250Z,4.50
2022-12-23T13:05:32.435Z,4.20
2022-12-23T13:08:29.861Z,4.25
2022-12-23T13:11:05.671Z,4.22
2022-12-23T13:13:48.590Z,4.50
2022-12-23T13:16:29.591Z,3.70
2022-12-23T13:19:04.209Z,3.10
2022-12-23T13:21:42.860Z,3.42
2022-12-23T13:24:22.904Z,3.67
2022-12-23T13:27:03.179Z,3.85
2022-12-23T13:30:06.516Z,4.72
2022-12-23T13:33:02.212Z,4.03
2022-12-23T13:35:48.455Z,4.45
2022-12-23T13:38:44.987Z,4.47
2022-12-23T13:41:25.789Z,4.75
2022-12-23T13:43:58.245Z,4.97
2022-12-23T13:46:38.668Z,5.80
2022-12-23T13:49:16.983Z,4.63
2022-12-23T13:51:53.090Z,4.38
2022-12-23T13:54:38.835Z,4.43
2022-12-23T13:57:25.348Z,4.60
2022-12-23T14:00:08.955Z,4.32
2022-12-23T14:02:51.733Z,4.55
2022-12-23T14:05:33.975Z,4.47
2022-12-23T14:08:05.355Z,3.97
2022-12-23T14:10:35.485Z,4.20
2022-12-23T14:13:07.208Z,4.05
2022-12-23T14:16:00.619Z,4.60
2022-12-23T14:19:05.148Z,4.68
2022-12-23T14:21:46.619Z,4.35
2022-12-23T14:24:46.998Z,5.13
2022-12-23T14:27:55.298Z,4.53
2022-12-23T14:30:32.814Z,5.22
2022-12-23T14:33:03.328Z,8.85
2022-12-23T14:35:54.423Z,6.40
2022-12-23T14:38:32.311Z,5.65
2022-12-23T14:41:19.471Z,4.80
2022-12-23T14:43:57.680Z,5.68
2022-12-23T14:46:58.224Z,5.32
2022-12-23T14:49:46.129Z,6.43
2022-12-23T14:52:59.387Z,6.38
2022-12-23T14:55:44.768Z,5.53
2022-12-23T14:59:15.347Z,5.70
2022-12-23T15:01:47.786Z,5.78
2022-12-23T15:04:21.791Z,6.28
2022-12-23T15:06:54.346Z,5.82
2022-12-23T15:09:26.633Z,5.15
2022-12-23T15:14:34.319Z,5.30
2022-12-23T15:17:26.157Z,10.82
2022-12-23T15:19:54.351Z,13.27
2022-12-23T15:22:30.183Z,6.25
2022-12-23T15:24:59.241Z,5.10
2022-12-23T15:27:29.828Z,6.53
2022-12-23T15:29:59.655Z,14.67
2022-12-23T15:32:28.459Z,11.60
2022-12-23T15:35:03.526Z,10.15
2022-12-23T15:37:31.898Z,6.15
2022-12-23T15:40:09.639Z,4.95
2022-12-23T15:42:46.111Z,5.72
2022-12-23T15:45:34.292Z,5.05
2022-12-23T15:48:02.175Z,4.90
2022-12-23T15:50:30.672Z,5.32
2022-12-23T15:53:06.093Z,5.20
2022-12-23T15:55:36.360Z,5.63
2022-12-23T15:58:04.778Z,5.32
2022-12-23T16:00:39.444Z,5.32
2022-12-23T16:03:22.838Z,5.18
2022-12-23T16:05:49.817Z,5.47
2022-12-23T16:08:29.575Z,4.93
2022-12-23T16:11:11.597Z,5.18
2022-12-23T16:13:43.083Z,4.80
2022-12-23T16:16:29.822Z,4.75
2022-12-23T16:18:57.634Z,4.43
2022-12-23T16:21:29.246Z,6.10
2022-12-23T16:23:56.942Z,5.82
2022-12-23T16:26:24.102Z,5.70
2022-12-23T16:28:55.185Z,6.50
2022-12-23T16:31:24.405Z,5.82
2022-12-23T16:33:54.257Z,6.05
2022-12-23T16:36:32.867Z,6.22
2022-12-23T16:39:13.150Z,6.32
2022-12-23T16:41:40.158Z,5.85
2022-12-23T16:44:06.936Z,4.97
2022-12-23T16:46:39.733Z,5.65
2022-12-23T16:49:11.896Z,5.15
2022-12-23T16:51:40.746Z,5.30
2022-12-23T16:54:14.303Z,5.13
2022-12-23T16:56:41.799Z,5.72
2022-12-23T16:59:10.019Z,5.90
2022-12-23T17:01:42.154Z,5.97
2022-12-23T17:04:09.245Z,6.05
2022-12-23T17:06:38.260Z,6.38
2022-12-23T17:09:05.892Z,6.20
2022-12-23T17:11:39.853Z,6.05
2022-12-23T17:14:16.975Z,5.93
2022-12-23T17:16:46.786Z,5.80
2022-12-23T17:19:13.942Z,6.72
2022-12-23T17:21:44.311Z,6.97
2022-12-23T17:24:16.493Z,6.90
2022-12-23T17:29:12.261Z,7.60
2022-12-23T17:31:41.141Z,6.93
2022-12-23T17:34:16.068Z,7.07
2022-12-23T17:36:49.627Z,6.20
2022-12-23T17:39:17.552Z,6.63
2022-12-23T17:41:44.531Z,6.88
2022-12-23T17:44:15.352Z,6.15
2022-12-23T17:46:42.641Z,6.22
2022-12-23T17:49:11.317Z,6.25
2022-12-23T17:51:40.207Z,5.72
2022-12-23T17:54:07.162Z,5.88
2022-12-23T17:56:34.216Z,5.63
2022-12-23T17:59:01.067Z,5.82
2022-12-23T18:01:31.404Z,5.13
2022-12-23T18:04:00.228Z,5.28
2022-12-23T18:06:29.201Z,5.05
2022-12-23T18:08:56.753Z,4.93
2022-12-23T18:11:32.295Z,5.85
2022-12-23T18:14:01.197Z,8.65
2022-12-23T18:16:28.460Z,4.78
2022-12-23T18:18:56.580Z,5.70
2022-12-23T18:21:26.913Z,5.07
2022-12-23T18:23:59.689Z,6.78
2022-12-23T18:26:26.680Z,6.20
2022-12-23T18:28:54.621Z,5.85
2022-12-23T18:31:24.019Z,5.78
2022-12-23T18:33:51.688Z,5.97
2022-12-23T18:36:25.908Z,5.93
2022-12-23T18:38:55.059Z,5.60
2022-12-23T18:41:23.494Z,5.43
2022-12-23T18:43:51.476Z,4.88
2022-12-23T18:46:18.613Z,5.35
2022-12-23T18:48:46.016Z,4.88
2022-12-23T18:51:18.850Z,4.88
2022-12-23T18:53:46.459Z,5.03
2022-12-23T18:56:16.253Z,4.90
2022-12-23T18:58:43.444Z,4.40
2022-12-23T19:01:12.231Z,4.15
2022-12-23T19:03:39.841Z,4.35
2022-12-23T19:06:09.789Z,4.15
2022-12-23T19:08:37.934Z,4.10
2022-12-23T19:11:11.183Z,4.30
2022-12-23T19:13:39.783Z,4.18
2022-12-23T19:16:07.647Z,4.18
2022-12-23T19:18:35.014Z,4.40
2022-12-23T19:21:04.748Z,4.72
2022-12-23T19:23:31.877Z,4.00
2022-12-23T19:25:58.821Z,4.22
2022-12-23T19:28:25.693Z,4.05
2022-12-23T19:30:54.193Z,4.57
2022-12-23T19:33:20.939Z,4.70
2022-12-23T19:35:47.974Z,4.20
2022-12-23T19:38:15.261Z,4.50
2022-12-23T19:40:42.081Z,3.72
2022-12-23T19:43:09.248Z,3.97
2022-12-23T19:45:36.168Z,3.70
2022-12-23T19:48:05.346Z,3.70
2022-12-23T19:50:32.131Z,3.05
2022-12-23T19:52:58.993Z,3.58
2022-12-23T19:55:25.783Z,3.50
2022-12-23T19:57:55.495Z,3.80
2022-12-23T20:00:22.670Z,3.63
2022-12-23T20:02:55.129Z,3.42
2022-12-23T20:05:26.782Z,2.35
2022-12-23T20:07:53.817Z,2.45
2022-12-23T20:10:20.731Z,2.67
2022-12-23T20:12:47.774Z,2.75
2022-12-23T20:15:14.631Z,3.17
2022-12-23T20:17:41.392Z,2.38
2022-12-23T20:20:09.733Z,2.42
2022-12-23T20:22:38.050Z,2.00
2022-12-23T20:25:06.255Z,2.05
2022-12-23T20:27:33.521Z,1.90
2022-12-23T20:30:00.544Z,2.10
2022-12-23T20:32:27.779Z,2.00
2022-12-23T20:34:54.649Z,2.40
2022-12-23T20:37:21.503Z,2.63
2022-12-23T20:39:50.176Z,2.47
2022-12-23T20:42:17.090Z,2.58
2022-12-23T20:44:43.847Z,2.85
2022-12-23T20:47:10.922Z,2.63
2022-12-23T20:49:38.296Z,2.92
2022-12-23T20:52:05.353Z,2.58
2022-12-23T20:54:33.984Z,3.17
2022-12-23T20:57:03.267Z,2.42
2022-12-23T20:59:30.462Z,2.33
2022-12-23T21:01:57.375Z,2.65
2022-12-23T21:04:24.623Z,2.63
2022-12-23T21:06:51.716Z,3.13
2022-12-23T21:09:18.560Z,2.28
2022-12-23T21:11:48.631Z,3.00
2022-12-23T21:14:16.844Z,2.90
2022-12-23T21:16:44.270Z,2.70
2022-12-23T21:19:17.443Z,2.85
2022-12-23T21:21:45.031Z,3.30
2022-12-23T21:24:12.053Z,2.50
2022-12-23T21:26:40.375Z,2.90
2022-12-23T21:29:10.586Z,3.00
2022-12-23T21:31:40.920Z,3.15
2022-12-23T21:34:09.154Z,3.30
2022-12-23T21:36:38.436Z,3.08
2022-12-23T21:39:06.795Z,3.72
2022-12-23T21:41:38.078Z,3.70
2022-12-23T21:44:05.668Z,3.55
2022-12-23T21:46:33.014Z,4.22
2022-12-23T21:49:02.002Z,3.33
2022-12-23T21:51:39.522Z,3.75
2022-12-23T21:54:09.686Z,4.05
2022-12-23T21:56:37.162Z,3.03
2022-12-23T21:59:08.399Z,3.20
2022-12-23T22:01:35.487Z,3.10
2022-12-23T22:04:04.262Z,3.83
2022-12-23T22:06:34.158Z,3.70
2022-12-23T22:09:02.456Z,3.17
2022-12-23T22:11:32.514Z,3.03
2022-12-23T22:14:00.963Z,3.15
2022-12-23T22:16:30.089Z,2.83
2022-12-23T22:18:59.251Z,3.03
2022-12-23T22:21:30.661Z,3.72
2022-12-23T22:23:58.482Z,3.60
2022-12-23T22:26:28.004Z,3.20
2022-12-23T22:28:57.869Z,3.40
2022-12-23T22:31:33.951Z,3.88
2022-12-23T22:34:01.527Z,3.55
2022-12-23T22:36:30.481Z,3.70
2022-12-23T22:39:00.595Z,3.42
2022-12-23T22:41:29.675Z,3.10
2022-12-23T22:43:57.615Z,3.67
2022-12-23T22:46:26.120Z,3.25
2022-12-23T22:48:53.842Z,3.75
2022-12-23T22:51:24.731Z,3.70
2022-12-23T22:53:53.294Z,4.18
2022-12-23T22:56:22.017Z,3.83
2022-12-23T22:58:49.972Z,3.78
2022-12-23T23:01:22.360Z,3.60
2022-12-23T23:03:50.045Z,3.65
2022-12-23T23:06:18.682Z,3.58
2022-12-23T23:08:45.617Z,3.13
2022-12-23T23:11:14.161Z,3.58
2022-12-23T23:13:40.994Z,3.17
2022-12-23T23:16:08.234Z,3.50
2022-12-23T23:18:35.237Z,3.45
2022-12-23T23:21:01.987Z,3.83
2022-12-23T23:23:28.799Z,3.83
2022-12-23T23:25:55.647Z,3.72
2022-12-23T23:28:23.956Z,3.85
2022-12-23T23:31:03.801Z,3.55
2022-12-23T23:33:38.411Z,3.38
2022-12-23T23:36:06.608Z,4.38
2022-12-23T23:38:33.490Z,3.88
2022-12-23T23:41:00.278Z,4.20
2022-12-23T23:43:28.440Z,3.90
2022-12-23T23:45:55.453Z,3.47
2022-12-23T23:48:22.346Z,3.92
2022-12-23T23:50:49.097Z,3.75
2022-12-23T23:53:16.509Z,3.95
2022-12-23T23:55:43.788Z,3.72
2022-12-23T23:58:11.931Z,4.03
